Time;durP1;ratioP1;P1;durP2;ratioP2;P2;SDS_P1;SDS_P2;PMS_P1;PMS_P2;Temp;Humidity;BMP_temperature;BMP_pressure;BME280_temperature;BME280_humidity;BME280_pressure;Samples;Min_cycle;Max_cycle;Signal;HPM_P1;HPM_P2
2022/04/05 00:00:11;;;;;;;0.85;0.30;;;18.20;44.60;;;;;;5071565;28;20369;-71
2022/04/05 00:02:37;;;;;;;1.15;0.30;;;18.20;44.60;;;;;;5070974;28;20045;-71
2022/04/05 00:05:03;;;;;;;2.42;0.45;;;18.20;44.60;;;;;;5071478;28;20044;-71
2022/04/05 00:07:28;;;;;;;0.60;0.10;;;18.10;44.60;;;;;;5071563;28;20484;-71
2022/04/05 00:09:54;;;;;;;1.45;0.20;;;18.10;44.60;;;;;;5071439;28;20041;-71
2022/04/05 00:12:23;;;;;;;1.30;0.40;;;18.10;44.60;;;;;;5071676;28;20045;-71
2022/04/05 00:14:49;;;;;;;0.88;0.10;;;18.10;44.60;;;;;;5071527;28;20044;-72
2022/04/05 00:17:16;;;;;;;1.60;0.20;;;18.10;44.60;;;;;;5071220;28;20044;-72
2022/04/05 00:19:42;;;;;;;1.20;0.10;;;18.10;44.70;;;;;;5071040;28;20053;-71
2022/04/05 00:22:08;;;;;;;1.25;0.10;;;18.00;44.60;;;;;;5071140;28;20406;-71
2022/04/05 00:24:33;;;;;;;0.60;0.05;;;18.00;44.70;;;;;;5072360;28;20036;-72
2022/04/05 00:26:59;;;;;;;0.60;0.05;;;18.00;44.70;;;;;;5071136;28;20056;-71
2022/04/05 00:29:25;;;;;;;0.50;0.10;;;18.00;44.70;;;;;;5071160;28;20076;-71
2022/04/05 00:31:51;;;;;;;1.15;0.10;;;18.00;44.70;;;;;;5071039;28;20092;-71
2022/04/05 00:34:18;;;;;;;0.85;0.32;;;18.00;44.70;;;;;;5071262;28;20050;-70
2022/04/05 00:36:44;;;;;;;1.10;0.10;;;18.00;44.80;;;;;;5071235;28;20043;-71
2022/04/05 00:39:10;;;;;;;0.22;0.08;;;17.90;44.70;;;;;;5070896;28;20488;-71
2022/04/05 00:41:37;;;;;;;1.05;0.10;;;17.90;44.90;;;;;;5070826;28;20427;-72
2022/04/05 00:44:03;;;;;;;0.25;0.10;;;17.90;44.90;;;;;;5071291;28;20638;-70
2022/04/05 00:46:30;;;;;;;0.57;0.10;;;17.90;44.80;;;;;;5070828;28;20045;-71
2022/04/05 00:48:59;;;;;;;0.75;0.10;;;17.90;44.80;;;;;;5071080;28;20048;-71
2022/04/05 00:51:26;;;;;;;0.80;0.20;;;17.90;44.90;;;;;;5072413;28;20048;-72
2022/04/05 00:53:57;;;;;;;0.43;0.10;;;17.90;44.90;;;;;;5071056;28;20094;-71
2022/04/05 00:56:26;;;;;;;0.88;0.10;;;17.90;44.90;;;;;;5071131;28;20052;-72
2022/04/05 00:58:54;;;;;;;0.52;0.03;;;17.80;44.80;;;;;;5070594;28;20043;-71
2022/04/05 01:01:22;;;;;;;1.10;0.10;;;17.80;45.00;;;;;;5070888;28;20047;-73
2022/04/05 01:03:50;;;;;;;1.15;0.00;;;17.80;44.90;;;;;;5070700;28;20044;-72
2022/04/05 01:06:18;;;;;;;0.80;0.20;;;17.80;45.00;;;;;;5070948;28;20310;-71
2022/04/05 01:08:46;;;;;;;0.45;0.10;;;17.80;45.00;;;;;;5070572;28;20052;-73
2022/04/05 01:11:12;;;;;;;0.82;0.10;;;17.80;45.00;;;;;;5071153;28;20068;-71
2022/04/05 01:13:38;;;;;;;1.27;0.10;;;17.70;44.90;;;;;;5070417;28;20047;-72
2022/04/05 01:16:04;;;;;;;0.10;0.00;;;17.80;45.00;;;;;;5072194;28;20076;-70
2022/04/05 01:18:29;;;;;;;0.43;0.10;;;17.70;45.00;;;;;;5070439;28;20051;-72
2022/04/05 01:20:56;;;;;;;0.73;0.13;;;17.70;45.00;;;;;;5070355;28;20044;-71
2022/04/05 01:23:25;;;;;;;0.50;0.10;;;17.70;45.00;;;;;;5071659;28;20075;-71
2022/04/05 01:25:52;;;;;;;0.43;0.03;;;17.70;45.10;;;;;;5070715;28;20040;-71
2022/04/05 01:28:19;;;;;;;0.55;0.10;;;17.60;45.00;;;;;;5070394;28;20068;-72
2022/04/05 01:30:45;;;;;;;0.90;0.10;;;17.60;45.10;;;;;;5070717;28;20094;-71
2022/04/05 01:33:13;;;;;;;0.55;0.00;;;17.60;45.10;;;;;;5071756;28;20036;-72
2022/04/05 01:35:39;;;;;;;0.73;0.00;;;17.60;45.10;;;;;;5070637;28;20115;-70
2022/04/05 01:38:07;;;;;;;0.38;0.03;;;17.60;45.10;;;;;;5070297;28;20032;-71
2022/04/05 01:40:32;;;;;;;0.40;0.10;;;17.60;45.10;;;;;;5070250;28;20033;-68
2022/04/05 01:42:58;;;;;;;0.85;0.10;;;17.60;45.10;;;;;;5070277;28;20515;-71
2022/04/05 01:45:24;;;;;;;0.60;0.10;;;17.60;45.20;;;;;;5070473;28;20114;-71
2022/04/05 01:47:50;;;;;;;0.63;0.10;;;17.60;45.20;;;;;;5070552;28;20040;-72
2022/04/05 01:50:16;;;;;;;1.00;0.10;;;17.60;45.30;;;;;;5071736;28;20059;-71
2022/04/05 01:52:41;;;;;;;0.80;0.10;;;17.60;45.30;;;;;;5071541;28;20601;-72
2022/04/05 01:55:10;;;;;;;0.47;0.00;;;17.70;45.20;;;;;;5070199;28;20083;-71
2022/04/05 01:57:36;;;;;;;0.50;0.05;;;17.80;45.00;;;;;;5070432;28;20499;-71
2022/04/05 02:00:04;;;;;;;1.77;0.13;;;18.00;44.80;;;;;;5070154;28;20072;-71
2022/04/05 02:02:29;;;;;;;0.75;0.00;;;18.20;44.40;;;;;;5070415;28;20044;-71
2022/04/05 02:04:55;;;;;;;0.40;0.00;;;18.50;44.00;;;;;;5070131;28;20058;-71
2022/04/05 02:07:21;;;;;;;0.63;0.20;;;18.80;43.50;;;;;;5070124;28;20126;-71
2022/04/05 02:09:49;;;;;;;0.38;0.10;;;19.10;43.00;;;;;;5070159;28;20109;-68
2022/04/05 02:12:15;;;;;;;0.55;0.10;;;19.40;42.40;;;;;;5070286;28;20546;-70
2022/04/05 02:14:44;;;;;;;0.52;0.05;;;19.70;41.90;;;;;;5070280;28;20399;-72
2022/04/05 02:17:11;;;;;;;0.90;0.05;;;20.00;41.50;;;;;;5069963;28;20045;-71
2022/04/05 02:19:38;;;;;;;0.60;0.10;;;20.20;41.00;;;;;;5070932;28;20057;-71
2022/04/05 02:22:04;;;;;;;0.20;0.00;;;20.40;40.60;;;;;;5069971;28;20043;-71
2022/04/05 02:24:30;;;;;;;0.75;0.03;;;20.60;40.10;;;;;;5071180;28;20095;-69
2022/04/05 02:26:56;;;;;;;0.35;0.10;;;20.90;39.80;;;;;;5071761;28;20044;-72
2022/04/05 02:29:22;;;;;;;0.30;0.10;;;21.10;39.40;;;;;;5073752;28;20072;-71
2022/04/05 02:31:47;;;;;;;0.65;0.00;;;21.20;39.10;;;;;;5073671;28;20544;-72
2022/04/05 02:34:13;;;;;;;0.93;0.10;;;21.40;38.80;;;;;;5074724;28;20523;-71
2022/04/05 02:36:39;;;;;;;0.75;0.20;;;21.60;38.50;;;;;;5073641;28;20353;-70
2022/04/05 02:39:06;;;;;;;0.28;0.00;;;21.70;38.20;;;;;;5056767;28;20476;-71
2022/04/05 02:41:32;;;;;;;0.50;0.00;;;21.90;38.00;;;;;;5073464;28;20476;-68
2022/04/05 02:43:59;;;;;;;0.10;0.00;;;22.00;37.80;;;;;;5073509;28;20082;-71
2022/04/05 02:46:25;;;;;;;0.17;0.00;;;22.10;37.50;;;;;;5073202;28;20040;-71
2022/04/05 02:48:54;;;;;;;0.30;0.00;;;22.20;37.30;;;;;;5074616;28;20289;-72
2022/04/05 02:51:20;;;;;;;0.25;0.00;;;22.30;37.10;;;;;;5074350;28;20086;-72
2022/04/05 02:53:46;;;;;;;0.35;0.00;;;22.40;36.90;;;;;;5074259;28;20075;-73
2022/04/05 02:56:13;;;;;;;0.40;0.00;;;22.50;36.80;;;;;;5073163;28;20071;-68
2022/04/05 02:58:38;;;;;;;0.43;0.00;;;22.50;36.50;;;;;;5072281;28;20041;-72
2022/04/05 03:01:05;;;;;;;0.57;0.00;;;22.60;36.50;;;;;;5073928;28;20047;-71
2022/04/05 03:03:32;;;;;;;0.60;0.00;;;22.60;36.50;;;;;;5072917;28;20497;-71
2022/04/05 03:05:58;;;;;;;0.55;0.03;;;22.60;36.40;;;;;;5072757;28;20534;-71
2022/04/05 03:08:24;;;;;;;0.63;0.15;;;22.50;36.40;;;;;;5073981;28;20033;-72
2022/04/05 03:10:50;;;;;;;0.32;0.05;;;22.50;36.40;;;;;;5073103;28;20481;-71
2022/04/05 03:13:16;;;;;;;1.48;0.73;;;22.50;36.50;;;;;;5071994;28;20610;-72
2022/04/05 03:15:42;;;;;;;0.50;0.03;;;22.50;36.40;;;;;;5072591;28;20059;-71
2022/04/05 03:18:07;;;;;;;0.40;0.00;;;22.60;36.20;;;;;;5072523;28;20048;-72
2022/04/05 03:20:33;;;;;;;0.30;0.00;;;22.70;36.00;;;;;;5073521;28;20060;-71
2022/04/05 03:23:00;;;;;;;0.88;0.10;;;22.90;35.70;;;;;;5072379;28;20120;-68
2022/04/05 03:25:27;;;;;;;0.35;0.00;;;23.00;35.40;;;;;;5072625;28;20070;-72
2022/04/05 03:27:53;;;;;;;0.77;0.00;;;23.10;35.20;;;;;;5073787;28;20467;-72
2022/04/05 03:30:20;;;;;;;0.82;0.00;;;23.30;35.10;;;;;;5072571;28;20036;-72
2022/04/05 03:32:46;;;;;;;0.55;0.00;;;23.30;34.80;;;;;;5072276;28;20060;-71
2022/04/05 03:35:12;;;;;;;0.50;0.00;;;23.50;34.70;;;;;;5073657;28;20055;-71
2022/04/05 03:37:38;;;;;;;0.30;0.00;;;23.50;34.40;;;;;;5072487;28;20141;-71
2022/04/05 03:40:05;;;;;;;0.30;0.00;;;23.70;35.00;;;;;;5073254;28;20051;-71
2022/04/05 03:42:31;;;;;;;0.85;0.00;;;23.80;34.10;;;;;;5072085;28;20049;-72
2022/04/05 03:44:57;;;;;;;0.30;0.00;;;23.90;33.80;;;;;;5072074;28;20116;-72
2022/04/05 03:47:23;;;;;;;1.33;0.00;;;24.00;33.60;;;;;;5072259;28;20144;-72
2022/04/05 03:49:49;;;;;;;0.40;0.00;;;24.10;33.50;;;;;;5072223;28;20086;-71
2022/04/05 03:52:15;;;;;;;0.35;0.00;;;24.20;33.30;;;;;;5072344;28;20063;-71
2022/04/05 03:54:41;;;;;;;0.60;0.03;;;24.20;33.10;;;;;;5071664;28;20487;-71
2022/04/05 03:57:07;;;;;;;0.50;0.05;;;24.30;33.00;;;;;;5071850;28;20040;-71
2022/04/05 03:59:32;;;;;;;0.05;0.00;;;24.50;32.90;;;;;;5071823;28;20124;-73
2022/04/05 04:01:58;;;;;;;0.10;0.00;;;24.50;32.70;;;;;;5071984;28;20083;-71
2022/04/05 04:04:23;;;;;;;0.55;0.00;;;24.60;32.50;;;;;;5071485;28;20040;-73
2022/04/05 04:06:52;;;;;;;0.90;0.00;;;24.70;32.30;;;;;;5071750;28;20045;-71
2022/04/05 04:09:23;;;;;;;0.32;0.00;;;24.80;32.10;;;;;;5071397;28;20449;-71
2022/04/05 04:11:52;;;;;;;1.60;0.03;;;24.90;32.00;;;;;;5071536;28;20093;-71
2022/04/05 04:14:18;;;;;;;0.30;0.00;;;25.00;31.80;;;;;;5072716;28;20044;-71
2022/04/05 04:16:44;;;;;;;0.80;0.10;;;25.00;31.70;;;;;;5071651;28;20085;-71
2022/04/05 04:19:10;;;;;;;1.17;0.00;;;25.00;31.70;;;;;;5071384;28;20545;-73
2022/04/05 04:21:35;;;;;;;1.17;0.00;;;25.10;31.60;;;;;;5071138;28;20052;-72
2022/04/05 04:24:04;;;;;;;0.95;0.00;;;25.10;31.50;;;;;;5072445;28;20043;-71
2022/04/05 04:26:30;;;;;;;0.30;0.00;;;25.10;31.50;;;;;;5071153;28;20488;-69
2022/04/05 04:28:58;;;;;;;1.38;0.00;;;25.20;31.50;;;;;;5071354;28;20105;-71
2022/04/05 04:31:24;;;;;;;0.90;0.00;;;25.20;31.40;;;;;;5070789;28;20044;-72
2022/04/05 04:33:50;;;;;;;0.52;0.10;;;25.20;31.40;;;;;;5071055;28;20170;-71
2022/04/05 04:36:16;;;;;;;0.32;0.00;;;25.20;31.30;;;;;;5071140;28;20121;-71
2022/04/05 04:38:42;;;;;;;0.40;0.00;;;25.20;31.20;;;;;;5070945;28;20041;-71
2022/04/05 04:41:07;;;;;;;0.38;0.08;;;25.20;31.20;;;;;;5072453;28;20059;-69
2022/04/05 04:43:33;;;;;;;0.30;0.20;;;25.30;31.20;;;;;;5071306;28;20029;-73
2022/04/05 04:45:59;;;;;;;0.40;0.10;;;25.30;31.20;;;;;;5071177;28;20515;-71
2022/04/05 04:48:24;;;;;;;0.10;0.00;;;25.20;31.10;;;;;;5070851;28;20142;-71
2022/04/05 04:50:50;;;;;;;1.02;0.00;;;25.30;31.10;;;;;;5070902;28;20040;-71
2022/04/05 04:53:16;;;;;;;0.35;0.00;;;25.30;31.10;;;;;;5070862;28;20503;-71
2022/04/05 04:55:42;;;;;;;0.55;0.00;;;25.40;31.10;;;;;;5072092;28;20131;-71
2022/04/05 04:58:08;;;;;;;0.68;0.00;;;25.30;31.00;;;;;;5070792;28;20395;-72
2022/04/05 05:00:34;;;;;;;0.52;0.00;;;25.30;31.00;;;;;;5054052;28;20059;-68
2022/04/05 05:02:59;;;;;;;0.40;0.00;;;25.40;31.00;;;;;;5070740;28;20041;-72
2022/04/05 05:05:25;;;;;;;0.20;0.00;;;25.40;31.00;;;;;;5070718;28;20036;-71
2022/04/05 05:07:52;;;;;;;0.90;0.00;;;25.40;31.00;;;;;;5070734;28;20040;-71
2022/04/05 05:10:20;;;;;;;0.50;0.00;;;25.50;31.00;;;;;;5070450;28;20046;-69
2022/04/05 05:12:45;;;;;;;0.65;0.00;;;25.50;30.90;;;;;;5070839;28;20044;-72
2022/04/05 05:15:15;;;;;;;0.65;0.00;;;25.50;30.80;;;;;;5070607;28;20165;-71
2022/04/05 05:17:44;;;;;;;0.30;0.00;;;25.50;30.80;;;;;;5071949;28;20033;-72
2022/04/05 05:20:11;;;;;;;0.23;0.00;;;25.50;30.80;;;;;;5070336;28;20044;-71
2022/04/05 05:22:37;;;;;;;0.17;0.00;;;25.50;30.80;;;;;;5070678;28;20306;-71
2022/04/05 05:25:04;;;;;;;0.40;0.00;;;25.50;30.80;;;;;;5070524;28;20048;-71
2022/04/05 05:27:30;;;;;;;1.45;0.10;;;25.50;30.80;;;;;;5071892;28;20029;-71
2022/04/05 05:29:58;;;;;;;0.20;0.00;;;25.50;30.80;;;;;;5070843;28;20036;-72
2022/04/05 05:32:24;;;;;;;0.30;0.00;;;25.50;30.80;;;;;;5070444;28;20055;-68
2022/04/05 05:34:50;;;;;;;0.30;0.00;;;25.50;30.80;;;;;;5070832;28;20041;-68
2022/04/05 05:37:15;;;;;;;0.25;0.00;;;25.50;30.80;;;;;;5070644;28;20500;-72
2022/04/05 05:39:41;;;;;;;0.40;0.00;;;25.50;30.80;;;;;;5070405;28;20476;-71
2022/04/05 05:42:08;;;;;;;1.10;0.10;;;25.50;30.80;;;;;;5070342;28;20498;-71
2022/04/05 05:44:35;;;;;;;0.40;0.00;;;25.50;30.80;;;;;;5068910;28;20308;-72
2022/04/05 05:47:02;;;;;;;0.95;0.00;;;25.40;30.80;;;;;;5067101;28;20044;-71
2022/04/05 05:49:28;;;;;;;0.30;0.00;;;25.50;30.80;;;;;;5068751;28;20422;-72
2022/04/05 05:51:54;;;;;;;0.63;0.00;;;25.40;30.80;;;;;;5067766;28;20040;-71
2022/04/05 05:54:20;;;;;;;0.17;0.00;;;25.40;30.80;;;;;;5068000;28;20049;-71
2022/04/05 05:56:46;;;;;;;0.20;0.00;;;25.40;30.80;;;;;;5068014;28;20844;-72
2022/04/05 05:59:12;;;;;;;0.93;0.00;;;25.50;30.90;;;;;;5063342;28;20048;-72
2022/04/05 06:01:38;;;;;;;0.90;0.08;;;25.40;30.80;;;;;;5067943;28;20044;-72
2022/04/05 06:04:03;;;;;;;0.85;0.00;;;25.40;30.80;;;;;;5063541;28;20268;-72
2022/04/05 06:06:29;;;;;;;0.50;0.00;;;25.40;30.90;;;;;;5068218;28;20480;-73
2022/04/05 06:08:56;;;;;;;0.98;0.20;;;25.40;30.90;;;;;;5068158;28;20554;-71
2022/04/05 06:11:23;;;;;;;2.05;0.00;;;25.40;30.90;;;;;;5066185;28;20047;-69
2022/04/05 06:13:50;;;;;;;2.05;0.00;;;25.20;31.60;;;;;;5056959;28;20048;-71
2022/04/05 06:16:16;;;;;;;0.98;0.00;;;24.90;32.30;;;;;;5045174;28;20182;-70
2022/04/05 06:18:42;;;;;;;0.88;0.10;;;24.70;32.90;;;;;;5057094;28;20048;-70
2022/04/05 06:21:08;;;;;;;0.38;0.00;;;24.40;33.50;;;;;;5058425;28;20158;-70
2022/04/05 06:23:34;;;;;;;0.80;0.00;;;24.20;34.10;;;;;;5058934;28;20044;-71
2022/04/05 06:26:00;;;;;;;1.05;0.00;;;24.00;34.50;;;;;;5044211;28;20536;-71
2022/04/05 06:28:26;;;;;;;1.63;0.05;;;23.90;34.80;;;;;;5061254;28;20053;-74
2022/04/05 06:30:52;;;;;;;0.13;0.00;;;23.80;34.90;;;;;;5042400;28;21583;-70
2022/04/05 06:33:20;;;;;;;0.82;0.10;;;23.80;35.10;;;;;;5056868;28;20056;-73
2022/04/05 06:35:48;;;;;;;0.77;0.00;;;23.80;35.50;;;;;;5043407;28;20329;-73
2022/04/05 06:38:15;;;;;;;0.70;0.10;;;23.80;35.70;;;;;;5051227;28;20037;-73
2022/04/05 06:40:41;;;;;;;7.03;0.45;;;23.70;35.60;;;;;;5050332;28;20544;-73
2022/04/05 06:43:07;;;;;;;4.82;0.10;;;23.70;35.50;;;;;;5059851;28;20037;-72
2022/04/05 06:45:33;;;;;;;7.53;0.20;;;23.60;35.80;;;;;;5063036;28;20178;-70
2022/04/05 06:47:59;;;;;;;2.13;0.20;;;23.60;36.70;;;;;;5051588;28;20070;-70
2022/04/05 06:50:28;;;;;;;4.82;0.10;;;23.50;36.90;;;;;;5057597;28;20086;-70
2022/04/05 06:52:57;;;;;;;1.88;0.10;;;23.40;36.90;;;;;;5049253;28;20041;-70
2022/04/05 06:55:24;;;;;;;3.53;0.10;;;23.40;37.20;;;;;;5041790;28;20047;-70
2022/04/05 06:57:49;;;;;;;3.53;0.30;;;23.40;37.60;;;;;;5053349;28;20480;-71
2022/04/05 07:00:18;;;;;;;7.32;0.60;;;23.30;37.80;;;;;;5054070;28;20094;-72
2022/04/05 07:02:44;;;;;;;1.77;0.10;;;23.40;38.00;;;;;;5051493;28;20040;-75
2022/04/05 07:05:11;;;;;;;3.45;0.30;;;23.40;37.90;;;;;;5053610;28;20484;-75
2022/04/05 07:07:38;;;;;;;3.50;0.15;;;23.70;37.50;;;;;;5054244;28;20495;-73
2022/04/05 07:10:05;;;;;;;1.17;0.10;;;24.00;36.90;;;;;;5067056;28;20451;-74
2022/04/05 07:12:32;;;;;;;0.80;0.10;;;24.20;36.40;;;;;;5055875;28;20087;-75
2022/04/05 07:14:58;;;;;;;1.80;0.10;;;24.40;35.90;;;;;;5052586;28;20106;-74
2022/04/05 07:17:23;;;;;;;2.97;0.17;;;24.50;35.50;;;;;;5054502;28;20613;-74
2022/04/05 07:19:49;;;;;;;2.13;0.20;;;24.70;35.20;;;;;;5049542;28;20052;-73
2022/04/05 07:22:15;;;;;;;1.33;0.10;;;24.70;34.90;;;;;;5051311;28;20167;-74
2022/04/05 07:24:40;;;;;;;0.70;0.08;;;24.80;34.70;;;;;;5051384;28;20653;-74
2022/04/05 07:27:06;;;;;;;0.88;0.05;;;24.80;34.50;;;;;;5051772;28;20396;-74
2022/04/05 07:29:35;;;;;;;1.95;0.32;;;24.80;34.50;;;;;;5071470;28;20033;-74
2022/04/05 07:32:00;;;;;;;0.55;0.00;;;24.70;34.50;;;;;;5054099;28;20496;-74
2022/04/05 07:34:26;;;;;;;0.68;0.00;;;24.70;34.50;;;;;;5054387;28;20120;-73
2022/04/05 07:36:52;;;;;;;1.15;0.00;;;24.60;34.60;;;;;;5055810;28;20767;-75
2022/04/05 07:39:21;;;;;;;0.50;0.00;;;24.40;34.60;;;;;;5064755;28;20036;-74
2022/04/05 07:41:47;;;;;;;0.85;0.10;;;24.30;34.70;;;;;;5051656;28;20559;-73
2022/04/05 07:44:13;;;;;;;1.77;0.00;;;24.10;34.90;;;;;;5052472;28;20029;-73
2022/04/05 07:46:39;;;;;;;2.03;0.00;;;24.00;35.10;;;;;;5053535;28;20116;-73
2022/04/05 07:49:05;;;;;;;0.90;0.00;;;23.80;35.30;;;;;;5055861;28;20119;-74
2022/04/05 07:51:30;;;;;;;0.35;0.03;;;23.70;35.40;;;;;;5070593;28;20121;-75
2022/04/05 07:53:56;;;;;;;1.05;0.05;;;23.60;35.60;;;;;;5050905;28;20076;-75
2022/04/05 07:56:22;;;;;;;0.60;0.10;;;23.50;35.70;;;;;;5048949;28;20079;-73
2022/04/05 07:58:47;;;;;;;1.05;0.00;;;23.40;35.80;;;;;;5043701;28;20384;-72
2022/04/05 08:01:13;;;;;;;1.95;0.52;;;23.40;35.90;;;;;;5046421;28;20044;-72
2022/04/05 08:03:39;;;;;;;1.13;0.00;;;23.40;35.80;;;;;;5047040;28;20037;-73
2022/04/05 08:06:05;;;;;;;1.60;0.08;;;23.50;35.80;;;;;;5050303;28;20450;-73
2022/04/05 08:08:31;;;;;;;0.77;0.03;;;23.60;35.60;;;;;;5050921;28;20033;-72
2022/04/05 08:10:57;;;;;;;1.45;0.00;;;23.70;35.30;;;;;;5067310;28;20106;-74
2022/04/05 08:13:23;;;;;;;1.52;0.00;;;23.90;35.10;;;;;;5059404;28;20075;-74
2022/04/05 08:15:49;;;;;;;0.57;0.00;;;24.00;34.80;;;;;;5048158;28;20762;-74
2022/04/05 08:18:15;;;;;;;0.80;0.00;;;24.20;34.50;;;;;;5048002;28;20040;-69
2022/04/05 08:20:41;;;;;;;0.80;0.00;;;24.40;34.30;;;;;;5049669;28;20081;-73
2022/04/05 08:23:08;;;;;;;1.50;0.00;;;24.50;34.00;;;;;;5050209;28;20036;-73
2022/04/05 08:25:35;;;;;;;0.30;0.00;;;24.60;33.80;;;;;;5049793;28;20059;-73
2022/04/05 08:28:01;;;;;;;1.40;0.00;;;24.70;33.70;;;;;;5051499;28;20036;-73
2022/04/05 08:30:30;;;;;;;2.17;0.00;;;24.70;33.50;;;;;;5067894;28;20130;-71
2022/04/05 08:32:56;;;;;;;5.00;0.20;;;24.80;33.60;;;;;;5051670;28;20032;-73
2022/04/05 08:35:23;;;;;;;3.28;0.10;;;24.70;34.80;;;;;;5052347;28;20480;-73
2022/04/05 08:37:51;;;;;;;3.40;0.20;;;24.50;36.20;;;;;;5050528;28;20055;-72
2022/04/05 08:40:19;;;;;;;3.97;0.10;;;24.30;37.00;;;;;;5067642;28;20093;-67
2022/04/05 08:42:49;;;;;;;2.85;0.25;;;24.10;37.50;;;;;;5052039;28;20376;-73
2022/04/05 08:45:18;;;;;;;2.88;0.10;;;23.90;37.80;;;;;;5051463;28;20495;-72
2022/04/05 08:47:47;;;;;;;8.75;1.15;;;23.70;38.30;;;;;;5052092;28;20071;-73
2022/04/05 08:50:15;;;;;;;3.65;0.10;;;23.60;39.30;;;;;;5060399;28;20068;-76
2022/04/05 08:52:42;;;;;;;2.40;0.17;;;23.60;39.90;;;;;;5054499;28;20039;-76
2022/04/05 08:55:08;;;;;;;2.58;0.10;;;23.70;39.90;;;;;;5060357;28;20045;-73
2022/04/05 08:57:34;;;;;;;2.15;0.10;;;23.90;39.50;;;;;;5045840;28;20045;-76
2022/04/05 09:00:01;;;;;;;2.45;0.10;;;24.20;39.10;;;;;;5050602;28;20045;-75
2022/04/05 09:02:27;;;;;;;4.70;0.10;;;24.40;38.80;;;;;;5051569;28;20048;-75
2022/04/05 09:04:53;;;;;;;4.20;0.20;;;24.50;38.50;;;;;;5047854;28;20609;-74
2022/04/05 09:10:15;;;;;;;2.15;0.10;;;24.60;38.40;;;;;;5116306;27;1285400;-74
2022/04/05 09:12:45;;;;;;;3.40;0.05;;;24.70;38.20;;;;;;5118422;27;20039;-75
2022/04/05 09:15:26;;;;;;;0.45;0.10;;;24.70;38.30;;;;;;5109369;27;20159;-71
2022/04/05 09:17:52;;;;;;;2.35;0.10;;;24.60;38.80;;;;;;5111445;27;20047;-73
2022/04/05 09:20:20;;;;;;;1.52;0.10;;;24.50;38.60;;;;;;5116915;27;20486;-72
2022/04/05 09:22:46;;;;;;;2.97;0.10;;;24.50;38.80;;;;;;5114609;27;20054;-72
2022/04/05 09:25:13;;;;;;;0.65;0.20;;;24.30;38.80;;;;;;5113217;27;20035;-71
2022/04/05 09:30:31;;;;;;;0.30;0.00;;;24.30;38.90;;;;;;5107680;27;20334;-73
2022/04/05 09:32:58;;;;;;;3.17;0.32;;;24.00;39.20;;;;;;5123013;27;20059;-74
2022/04/05 09:35:43;;;;;;;3.10;0.00;;;23.80;39.40;;;;;;5091816;28;20530;-72
2022/04/05 09:40:52;;;;;;;1.25;0.10;;;23.50;40.00;;;;;;5098961;27;20411;-68
2022/04/05 09:43:18;;;;;;;0.57;0.00;;;23.30;40.20;;;;;;5091331;28;20036;-72
2022/04/05 09:48:27;;;;;;;1.42;0.10;;;23.20;40.50;;;;;;5099365;27;1153445;-73
2022/04/05 09:56:29;;;;;;;1.40;0.00;;;22.90;41.40;;;;;;5109296;27;20417;-72
2022/04/05 09:58:57;;;;;;;0.43;0.10;;;22.70;41.80;;;;;;5101844;28;20480;-70
2022/04/05 10:01:25;;;;;;;0.90;0.00;;;22.60;42.00;;;;;;5094021;28;20432;-72
2022/04/05 10:04:09;;;;;;;0.20;0.00;;;22.60;42.00;;;;;;5110824;28;20085;-71
2022/04/05 10:06:39;;;;;;;1.73;0.00;;;22.60;42.10;;;;;;5110581;28;20259;-73
2022/04/05 10:09:06;;;;;;;0.98;0.00;;;22.50;42.00;;;;;;5095108;28;20039;-72
2022/04/05 10:11:34;;;;;;;0.60;0.10;;;22.60;42.10;;;;;;5092024;28;20043;-72
2022/04/05 10:14:00;;;;;;;1.30;0.10;;;22.60;42.00;;;;;;5114064;27;20075;-75
2022/04/05 10:16:28;;;;;;;0.73;0.10;;;22.60;41.90;;;;;;5093444;28;20058;-78
2022/04/05 10:18:59;;;;;;;0.90;0.03;;;22.70;42.00;;;;;;5093560;28;20051;-78
2022/04/05 10:21:28;;;;;;;0.30;0.00;;;22.70;42.00;;;;;;5109620;28;20043;-77
2022/04/05 10:23:56;;;;;;;2.33;0.10;;;22.80;41.80;;;;;;5094064;28;20035;-76
2022/04/05 10:26:26;;;;;;;0.52;0.00;;;22.80;41.70;;;;;;5092952;28;20237;-76
2022/04/05 10:28:53;;;;;;;4.93;0.20;;;22.80;41.60;;;;;;5095300;28;20046;-76
2022/04/05 10:34:31;;;;;;;0.98;0.20;;;22.80;42.10;;;;;;5066910;28;20437;-74
2022/04/05 10:37:18;;;;;;;2.92;0.52;;;22.80;42.10;;;;;;5071309;28;20045;-68
2022/04/05 10:42:49;;;;;;;4.70;0.38;;;22.70;42.10;;;;;;5112034;27;20371;-71
2022/04/05 10:50:39;;;;;;;2.42;0.20;;;22.90;42.80;;;;;;5090844;27;20410;-72
2022/04/05 11:01:43;;;;;;;3.40;0.10;;;23.40;41.80;;;;;;5133899;27;1171320;-71
2022/04/05 11:07:10;;;;;;;3.88;0.20;;;23.80;40.70;;;;;;5076642;27;20426;-70
2022/04/05 11:12:28;;;;;;;1.95;0.32;;;23.90;41.10;;;;;;5087089;27;20248;-72
2022/04/05 11:17:37;;;;;;;2.65;0.20;;;23.90;41.10;;;;;;5064508;27;20399;-78
2022/04/05 11:20:04;;;;;;;2.10;0.20;;;23.80;40.80;;;;;;5064003;28;20055;-72
2022/04/05 11:22:33;;;;;;;0.98;0.20;;;23.80;40.90;;;;;;5063492;28;20047;-74
2022/04/05 11:27:49;;;;;;;3.20;0.10;;;23.70;41.00;;;;;;5065478;27;20337;-69
2022/04/05 11:33:22;;;;;;;1.63;0.10;;;23.60;41.20;;;;;;5099285;27;20204;-73
2022/04/05 11:36:10;;;;;;;1.60;0.10;;;23.50;41.50;;;;;;5088374;28;20049;-70
2022/04/05 11:41:21;;;;;;;1.77;0.10;;;23.40;41.50;;;;;;5084864;27;21100;-72
2022/04/05 11:43:50;;;;;;;4.95;0.10;;;23.30;42.00;;;;;;5068844;28;20072;-71
2022/04/05 11:46:28;;;;;;;1.30;0.10;;;23.20;42.20;;;;;;5065046;28;20539;-72
2022/04/05 11:48:57;;;;;;;6.53;0.30;;;23.20;42.40;;;;;;5065612;28;20028;-73
2022/04/05 11:51:29;;;;;;;2.10;0.10;;;23.10;42.50;;;;;;5067022;28;20036;-68
2022/04/05 11:54:13;;;;;;;1.15;0.10;;;23.10;42.80;;;;;;5066253;28;20043;-71
2022/04/05 11:56:41;;;;;;;1.40;0.08;;;23.10;43.10;;;;;;5100940;28;22104;-73
2022/04/05 11:59:09;;;;;;;8.25;0.30;;;23.00;42.90;;;;;;5068278;28;20094;-72
2022/04/05 12:01:37;;;;;;;1.50;0.10;;;23.00;43.00;;;;;;5072467;28;20046;-72
2022/04/05 12:04:06;;;;;;;0.95;0.10;;;22.90;43.00;;;;;;5071561;28;20084;-72
2022/04/05 12:06:34;;;;;;;2.05;0.10;;;22.90;43.10;;;;;;5087243;28;20116;-72
2022/04/05 12:09:04;;;;;;;0.75;0.20;;;22.80;43.10;;;;;;5101586;27;20051;-69
2022/04/05 12:11:31;;;;;;;1.33;0.15;;;22.80;43.20;;;;;;5065373;28;20052;-71
2022/04/05 12:13:59;;;;;;;1.67;0.10;;;22.80;43.20;;;;;;5084728;28;20086;-71
2022/04/05 12:16:27;;;;;;;1.95;0.15;;;22.80;43.20;;;;;;5072299;28;20419;-69
2022/04/05 12:18:54;;;;;;;1.45;0.10;;;22.80;43.30;;;;;;5068915;28;20040;-68
2022/04/05 12:21:21;;;;;;;1.15;0.10;;;22.80;43.30;;;;;;5067673;28;20074;-72
2022/04/05 12:23:48;;;;;;;5.70;0.20;;;22.80;43.30;;;;;;5085139;28;20071;-70
2022/04/05 12:26:24;;;;;;;1.58;0.10;;;22.80;43.30;;;;;;5072292;28;20044;-71
2022/04/05 12:28:53;;;;;;;2.83;0.10;;;22.80;43.30;;;;;;5072568;28;20054;-74
2022/04/05 12:31:23;;;;;;;2.08;0.20;;;22.80;43.70;;;;;;5085131;28;20044;-71
2022/04/05 12:34:13;;;;;;;3.33;0.25;;;22.80;44.30;;;;;;5084767;28;20054;-70
2022/04/05 12:39:25;;;;;;;1.50;0.10;;;22.80;45.00;;;;;;5090659;27;20514;-71
2022/04/05 12:41:53;;;;;;;1.45;0.10;;;22.90;45.10;;;;;;5086525;27;20073;-71
2022/04/05 12:44:21;;;;;;;4.72;0.63;;;22.90;45.00;;;;;;5092752;28;20039;-68
2022/04/05 12:57:49;;;;;;;2.95;0.20;;;23.10;44.80;;;;;;5065752;27;20451;-70
2022/04/05 13:06:20;;;;;;;8.88;1.15;;;23.20;45.00;;;;;;5100212;27;1157832;-72
2022/04/05 13:08:35;;;;;;;7.85;0.95;;;23.30;44.80;;;;;;5138859;27;20080;-73
2022/04/05 13:11:02;;;;;;;4.47;0.70;;;23.30;44.50;;;;;;5140736;27;20038;-72
2022/04/05 13:13:37;;;;;;;6.38;1.15;;;23.30;44.50;;;;;;5113330;27;20649;-72
2022/04/05 13:18:45;;;;;;;5.78;0.77;;;23.20;44.50;;;;;;5114755;27;20943;-71
2022/04/05 13:21:14;;;;;;;4.38;0.60;;;23.20;44.20;;;;;;5119623;28;20047;-72
2022/04/05 13:23:41;;;;;;;7.53;0.70;;;23.20;44.10;;;;;;5113447;28;20043;-72
2022/04/05 13:26:24;;;;;;;3.33;0.70;;;23.20;44.00;;;;;;5101215;28;20051;-71
2022/04/05 13:29:15;;;;;;;3.45;0.43;;;23.20;43.70;;;;;;5115755;28;20682;-73
2022/04/05 13:32:01;;;;;;;3.97;0.55;;;23.10;43.60;;;;;;5105407;28;20039;-72
2022/04/05 13:34:29;;;;;;;5.45;0.50;;;23.20;43.60;;;;;;5098458;28;20042;-72
2022/04/05 13:36:55;;;;;;;5.78;0.45;;;23.10;43.70;;;;;;5095613;28;20047;-66
2022/04/05 13:39:25;;;;;;;4.93;0.30;;;23.10;43.70;;;;;;5100370;28;20388;-72
2022/04/05 13:41:52;;;;;;;3.17;0.30;;;23.20;43.60;;;;;;5133615;27;20403;-72
2022/04/05 13:44:19;;;;;;;3.45;0.35;;;23.40;43.20;;;;;;5099593;28;20815;-73
2022/04/05 13:46:45;;;;;;;4.63;0.30;;;23.50;42.80;;;;;;5102269;28;20039;-73
2022/04/05 13:49:14;;;;;;;2.53;0.38;;;23.70;42.50;;;;;;5102855;28;20043;-73
2022/04/05 13:51:41;;;;;;;2.35;0.20;;;23.80;42.30;;;;;;5101193;28;20376;-72
2022/04/05 13:54:09;;;;;;;1.77;0.20;;;23.90;42.10;;;;;;5102102;28;20050;-72
2022/04/05 13:56:35;;;;;;;1.60;0.30;;;23.90;41.80;;;;;;5102592;28;20122;-72
2022/04/05 13:59:05;;;;;;;4.03;0.30;;;23.90;41.70;;;;;;5103913;28;20112;-72
2022/04/05 14:01:31;;;;;;;3.05;0.20;;;23.90;41.70;;;;;;5105055;28;20036;-71